sensor_id;sensor_type;location;lat;lon;timestamp;P1;durP1;ratioP1;P2;durP2;ratioP2
53064;SDS011;38948;48.376;-4.312;2022-12-22T00:01:52;10.73;;;2.10;;
53064;SDS011;38948;48.376;-4.312;2022-12-22T00:04:37;8.50;;;1.80;;
53064;SDS011;38948;48.376;-4.312;2022-12-22T00:07:25;15.63;;;2.70;;
53064;SDS011;38948;48.376;-4.312;2022-12-22T00:10:10;8.52;;;1.85;;
53064;SDS011;38948;48.376;-4.312;2022-12-22T00:12:54;13.25;;;3.22;;
53064;SDS011;38948;48.376;-4.312;2022-12-22T00:15:38;10.95;;;2.25;;
53064;SDS011;38948;48.376;-4.312;2022-12-22T00:18:22;8.70;;;2.30;;
53064;SDS011;38948;48.376;-4.312;2022-12-22T00:21:09;12.55;;;2.42;;
53064;SDS011;38948;48.376;-4.312;2022-12-22T00:23:55;11.13;;;2.28;;
53064;SDS011;38948;48.376;-4.312;2022-12-22T00:26:40;8.13;;;2.20;;
53064;SDS011;38948;48.376;-4.312;2022-12-22T00:29:25;10.50;;;2.30;;
53064;SDS011;38948;48.376;-4.312;2022-12-22T00:32:14;10.10;;;2.65;;
53064;SDS011;38948;48.376;-4.312;2022-12-22T00:34:58;12.73;;;2.38;;
53064;SDS011;38948;48.376;-4.312;2022-12-22T00:37:43;11.40;;;2.20;;
53064;SDS011;38948;48.376;-4.312;2022-12-22T00:40:28;17.60;;;2.63;;
53064;SDS011;38948;48.376;-4.312;2022-12-22T00:43:12;11.80;;;2.55;;
53064;SDS011;38948;48.376;-4.312;2022-12-22T00:45:57;13.07;;;2.33;;
53064;SDS011;38948;48.376;-4.312;2022-12-22T00:48:46;12.15;;;2.85;;
53064;SDS011;38948;48.376;-4.312;2022-12-22T00:51:31;10.48;;;2.40;;
53064;SDS011;38948;48.376;-4.312;2022-12-22T00:54:16;11.55;;;2.38;;
53064;SDS011;38948;48.376;-4.312;2022-12-22T00:57:01;12.70;;;3.10;;
53064;SDS011;38948;48.376;-4.312;2022-12-22T00:59:47;10.80;;;2.15;;
53064;SDS011;38948;48.376;-4.312;2022-12-22T01:02:32;9.43;;;2.63;;
53064;SDS011;38948;48.376;-4.312;2022-12-22T01:05:16;12.18;;;2.90;;
53064;SDS011;38948;48.376;-4.312;2022-12-22T01:08:01;11.83;;;2.90;;
53064;SDS011;38948;48.376;-4.312;2022-12-22T01:10:45;10.50;;;2.20;;
53064;SDS011;38948;48.376;-4.312;2022-12-22T01:13:30;10.82;;;2.50;;
53064;SDS011;38948;48.376;-4.312;2022-12-22T01:16:14;10.93;;;2.55;;
53064;SDS011;38948;48.376;-4.312;2022-12-22T01:18:59;14.55;;;2.53;;
53064;SDS011;38948;48.376;-4.312;2022-12-22T01:21:43;15.35;;;3.05;;
53064;SDS011;38948;48.376;-4.312;2022-12-22T01:24:28;11.40;;;1.93;;
53064;SDS011;38948;48.376;-4.312;2022-12-22T01:29:58;11.73;;;2.35;;
53064;SDS011;38948;48.376;-4.312;2022-12-22T01:32:42;12.60;;;2.78;;
53064;SDS011;38948;48.376;-4.312;2022-12-22T01:35:28;17.80;;;3.60;;
53064;SDS011;38948;48.376;-4.312;2022-12-22T01:38:14;12.00;;;2.65;;
53064;SDS011;38948;48.376;-4.312;2022-12-22T01:40:59;12.80;;;2.65;;
53064;SDS011;38948;48.376;-4.312;2022-12-22T01:43:45;11.70;;;2.97;;
53064;SDS011;38948;48.376;-4.312;2022-12-22T01:51:59;9.50;;;2.30;;
53064;SDS011;38948;48.376;-4.312;2022-12-22T01:57:29;12.98;;;2.65;;
53064;SDS011;38948;48.376;-4.312;2022-12-22T02:00:14;13.30;;;3.13;;
53064;SDS011;38948;48.376;-4.312;2022-12-22T02:02:59;10.05;;;2.58;;
53064;SDS011;38948;48.376;-4.312;2022-12-22T02:05:59;11.68;;;2.80;;
53064;SDS011;38948;48.376;-4.312;2022-12-22T02:12:29;15.68;;;2.53;;
53064;SDS011;38948;48.376;-4.312;2022-12-22T02:15:31;14.32;;;2.97;;
53064;SDS011;38948;48.376;-4.312;2022-12-22T02:21:17;11.73;;;2.45;;
53064;SDS011;38948;48.376;-4.312;2022-12-22T02:27:03;9.75;;;2.75;;
53064;SDS011;38948;48.376;-4.312;2022-12-22T02:29:54;16.38;;;3.72;;
53064;SDS011;38948;48.376;-4.312;2022-12-22T02:32:43;7.18;;;2.17;;
53064;SDS011;38948;48.376;-4.312;2022-12-22T02:35:29;16.30;;;3.05;;
53064;SDS011;38948;48.376;-4.312;2022-12-22T02:50:54;9.93;;;2.95;;
53064;SDS011;38948;48.376;-4.312;2022-12-22T02:53:47;12.35;;;2.80;;
53064;SDS011;38948;48.376;-4.312;2022-12-22T02:56:32;10.30;;;2.75;;
53064;SDS011;38948;48.376;-4.312;2022-12-22T02:59:16;10.30;;;2.23;;
53064;SDS011;38948;48.376;-4.312;2022-12-22T03:02:04;12.57;;;2.67;;
53064;SDS011;38948;48.376;-4.312;2022-12-22T03:04:48;10.20;;;2.30;;
53064;SDS011;38948;48.376;-4.312;2022-12-22T03:07:32;17.92;;;2.95;;
53064;SDS011;38948;48.376;-4.312;2022-12-22T03:10:16;14.98;;;3.47;;
53064;SDS011;38948;48.376;-4.312;2022-12-22T03:13:00;9.13;;;2.22;;
53064;SDS011;38948;48.376;-4.312;2022-12-22T03:15:44;12.18;;;3.15;;
53064;SDS011;38948;48.376;-4.312;2022-12-22T03:18:28;10.38;;;2.65;;
53064;SDS011;38948;48.376;-4.312;2022-12-22T03:21:12;14.88;;;2.90;;
53064;SDS011;38948;48.376;-4.312;2022-12-22T03:23:56;10.68;;;2.38;;
53064;SDS011;38948;48.376;-4.312;2022-12-22T03:26:40;8.88;;;2.38;;
53064;SDS011;38948;48.376;-4.312;2022-12-22T03:29:06;14.25;;;2.85;;
53064;SDS011;38948;48.376;-4.312;2022-12-22T03:31:32;10.07;;;2.42;;
53064;SDS011;38948;48.376;-4.312;2022-12-22T03:33:58;10.30;;;2.13;;
53064;SDS011;38948;48.376;-4.312;2022-12-22T03:36:23;12.10;;;4.22;;
53064;SDS011;38948;48.376;-4.312;2022-12-22T03:38:49;14.63;;;3.03;;
53064;SDS011;38948;48.376;-4.312;2022-12-22T03:41:15;14.52;;;3.10;;
53064;SDS011;38948;48.376;-4.312;2022-12-22T03:43:59;11.77;;;3.08;;
53064;SDS011;38948;48.376;-4.312;2022-12-22T03:46:43;13.95;;;3.08;;
53064;SDS011;38948;48.376;-4.312;2022-12-22T03:49:09;13.65;;;2.58;;
53064;SDS011;38948;48.376;-4.312;2022-12-22T03:51:44;16.63;;;3.20;;
53064;SDS011;38948;48.376;-4.312;2022-12-22T03:54:12;10.63;;;2.30;;
53064;SDS011;38948;48.376;-4.312;2022-12-22T03:56:40;16.02;;;2.38;;
53064;SDS011;38948;48.376;-4.312;2022-12-22T03:59:06;10.77;;;2.75;;
53064;SDS011;38948;48.376;-4.312;2022-12-22T04:01:32;14.02;;;3.72;;
53064;SDS011;38948;48.376;-4.312;2022-12-22T04:04:01;7.95;;;2.53;;
53064;SDS011;38948;48.376;-4.312;2022-12-22T04:06:27;10.77;;;2.67;;
53064;SDS011;38948;48.376;-4.312;2022-12-22T04:08:53;13.68;;;2.42;;
53064;SDS011;38948;48.376;-4.312;2022-12-22T04:11:19;11.63;;;3.15;;
53064;SDS011;38948;48.376;-4.312;2022-12-22T04:14:03;10.80;;;2.72;;
53064;SDS011;38948;48.376;-4.312;2022-12-22T04:16:29;13.88;;;2.70;;
53064;SDS011;38948;48.376;-4.312;2022-12-22T04:18:55;10.80;;;2.38;;
53064;SDS011;38948;48.376;-4.312;2022-12-22T04:21:21;14.75;;;2.97;;
53064;SDS011;38948;48.376;-4.312;2022-12-22T04:23:47;14.85;;;2.95;;
53064;SDS011;38948;48.376;-4.312;2022-12-22T04:26:15;11.57;;;2.67;;
53064;SDS011;38948;48.376;-4.312;2022-12-22T04:28:45;14.45;;;2.55;;
53064;SDS011;38948;48.376;-4.312;2022-12-22T04:31:11;12.98;;;2.70;;
53064;SDS011;38948;48.376;-4.312;2022-12-22T04:33:37;13.23;;;3.95;;
53064;SDS011;38948;48.376;-4.312;2022-12-22T04:36:03;11.88;;;2.75;;
53064;SDS011;38948;48.376;-4.312;2022-12-22T04:38:29;12.90;;;3.17;;
53064;SDS011;38948;48.376;-4.312;2022-12-22T04:40:55;13.05;;;3.85;;
53064;SDS011;38948;48.376;-4.312;2022-12-22T04:43:21;8.65;;;2.38;;
53064;SDS011;38948;48.376;-4.312;2022-12-22T04:45:48;10.13;;;2.70;;
53064;SDS011;38948;48.376;-4.312;2022-12-22T04:48:17;10.80;;;2.58;;
53064;SDS011;38948;48.376;-4.312;2022-12-22T04:50:43;12.93;;;2.88;;
53064;SDS011;38948;48.376;-4.312;2022-12-22T04:53:09;10.55;;;2.67;;
53064;SDS011;38948;48.376;-4.312;2022-12-22T04:55:35;9.30;;;2.65;;
53064;SDS011;38948;48.376;-4.312;2022-12-22T04:58:01;10.00;;;2.70;;
53064;SDS011;38948;48.376;-4.312;2022-12-22T05:00:27;12.50;;;3.72;;
53064;SDS011;38948;48.376;-4.312;2022-12-22T05:02:52;10.13;;;2.28;;
53064;SDS011;38948;48.376;-4.312;2022-12-22T05:05:18;9.82;;;2.80;;
53064;SDS011;38948;48.376;-4.312;2022-12-22T05:07:44;11.25;;;2.33;;
53064;SDS011;38948;48.376;-4.312;2022-12-22T05:10:10;10.00;;;2.95;;
53064;SDS011;38948;48.376;-4.312;2022-12-22T05:12:36;11.63;;;2.58;;
53064;SDS011;38948;48.376;-4.312;2022-12-22T05:15:30;15.75;;;2.35;;
53064;SDS011;38948;48.376;-4.312;2022-12-22T05:17:57;12.27;;;2.60;;
53064;SDS011;38948;48.376;-4.312;2022-12-22T05:20:23;9.82;;;2.90;;
53064;SDS011;38948;48.376;-4.312;2022-12-22T05:22:49;11.52;;;2.55;;
53064;SDS011;38948;48.376;-4.312;2022-12-22T05:25:15;11.43;;;2.55;;
53064;SDS011;38948;48.376;-4.312;2022-12-22T05:27:42;9.77;;;2.72;;
53064;SDS011;38948;48.376;-4.312;2022-12-22T05:30:10;10.15;;;2.10;;
53064;SDS011;38948;48.376;-4.312;2022-12-22T05:32:36;13.13;;;2.50;;
53064;SDS011;38948;48.376;-4.312;2022-12-22T05:35:02;8.77;;;2.45;;
53064;SDS011;38948;48.376;-4.312;2022-12-22T05:37:28;8.93;;;2.10;;
53064;SDS011;38948;48.376;-4.312;2022-12-22T05:39:54;10.23;;;2.75;;
53064;SDS011;38948;48.376;-4.312;2022-12-22T05:42:20;13.02;;;2.58;;
53064;SDS011;38948;48.376;-4.312;2022-12-22T05:45:06;17.05;;;2.40;;
53064;SDS011;38948;48.376;-4.312;2022-12-22T05:47:34;12.02;;;3.15;;
53064;SDS011;38948;48.376;-4.312;2022-12-22T05:50:00;9.43;;;3.30;;
53064;SDS011;38948;48.376;-4.312;2022-12-22T05:52:25;10.75;;;3.30;;
53064;SDS011;38948;48.376;-4.312;2022-12-22T05:54:52;12.43;;;2.53;;
53064;SDS011;38948;48.376;-4.312;2022-12-22T05:57:17;13.00;;;3.08;;
53064;SDS011;38948;48.376;-4.312;2022-12-22T05:59:43;11.88;;;2.72;;
53064;SDS011;38948;48.376;-4.312;2022-12-22T06:02:09;16.65;;;2.63;;
53064;SDS011;38948;48.376;-4.312;2022-12-22T06:04:35;9.80;;;2.60;;
53064;SDS011;38948;48.376;-4.312;2022-12-22T06:07:01;12.35;;;2.80;;
53064;SDS011;38948;48.376;-4.312;2022-12-22T06:09:26;9.23;;;2.05;;
53064;SDS011;38948;48.376;-4.312;2022-12-22T06:11:52;8.05;;;2.38;;
53064;SDS011;38948;48.376;-4.312;2022-12-22T06:14:18;14.85;;;3.60;;
53064;SDS011;38948;48.376;-4.312;2022-12-22T06:16:43;11.82;;;2.38;;
53064;SDS011;38948;48.376;-4.312;2022-12-22T06:19:09;10.93;;;2.42;;
53064;SDS011;38948;48.376;-4.312;2022-12-22T06:21:35;14.40;;;2.30;;
53064;SDS011;38948;48.376;-4.312;2022-12-22T06:24:00;12.23;;;2.88;;
53064;SDS011;38948;48.376;-4.312;2022-12-22T06:26:28;10.93;;;2.72;;
53064;SDS011;38948;48.376;-4.312;2022-12-22T06:28:54;10.32;;;2.05;;
53064;SDS011;38948;48.376;-4.312;2022-12-22T06:31:19;10.93;;;3.15;;
53064;SDS011;38948;48.376;-4.312;2022-12-22T06:33:45;11.13;;;3.13;;
53064;SDS011;38948;48.376;-4.312;2022-12-22T06:36:14;12.43;;;2.22;;
53064;SDS011;38948;48.376;-4.312;2022-12-22T06:38:39;7.88;;;2.25;;
53064;SDS011;38948;48.376;-4.312;2022-12-22T06:41:05;11.23;;;2.17;;
53064;SDS011;38948;48.376;-4.312;2022-12-22T06:43:31;9.02;;;2.38;;
53064;SDS011;38948;48.376;-4.312;2022-12-22T06:45:57;12.52;;;2.10;;
53064;SDS011;38948;48.376;-4.312;2022-12-22T06:48:23;14.98;;;3.35;;
53064;SDS011;38948;48.376;-4.312;2022-12-22T06:50:49;15.98;;;3.00;;
53064;SDS011;38948;48.376;-4.312;2022-12-22T06:53:15;10.82;;;2.08;;
53064;SDS011;38948;48.376;-4.312;2022-12-22T06:55:41;13.35;;;3.63;;
53064;SDS011;38948;48.376;-4.312;2022-12-22T06:58:07;10.02;;;2.10;;
53064;SDS011;38948;48.376;-4.312;2022-12-22T07:00:32;12.07;;;2.70;;
53064;SDS011;38948;48.376;-4.312;2022-12-22T07:02:58;11.38;;;2.83;;
53064;SDS011;38948;48.376;-4.312;2022-12-22T07:05:24;15.32;;;3.35;;
53064;SDS011;38948;48.376;-4.312;2022-12-22T07:07:51;11.23;;;2.25;;
53064;SDS011;38948;48.376;-4.312;2022-12-22T07:10:17;14.88;;;2.78;;
53064;SDS011;38948;48.376;-4.312;2022-12-22T07:12:43;15.90;;;3.03;;
53064;SDS011;38948;48.376;-4.312;2022-12-22T07:15:08;9.57;;;2.47;;
53064;SDS011;38948;48.376;-4.312;2022-12-22T07:17:34;8.35;;;2.00;;
53064;SDS011;38948;48.376;-4.312;2022-12-22T07:20:00;22.95;;;2.83;;
53064;SDS011;38948;48.376;-4.312;2022-12-22T07:22:26;12.98;;;3.05;;
53064;SDS011;38948;48.376;-4.312;2022-12-22T07:24:52;13.60;;;2.63;;
53064;SDS011;38948;48.376;-4.312;2022-12-22T07:27:18;9.15;;;1.92;;
53064;SDS011;38948;48.376;-4.312;2022-12-22T07:29:44;12.20;;;2.30;;
53064;SDS011;38948;48.376;-4.312;2022-12-22T07:32:10;8.98;;;2.30;;
53064;SDS011;38948;48.376;-4.312;2022-12-22T07:34:36;11.50;;;2.67;;
53064;SDS011;38948;48.376;-4.312;2022-12-22T07:37:02;15.00;;;3.10;;
53064;SDS011;38948;48.376;-4.312;2022-12-22T07:39:27;12.80;;;2.55;;
53064;SDS011;38948;48.376;-4.312;2022-12-22T07:41:53;9.48;;;1.92;;
53064;SDS011;38948;48.376;-4.312;2022-12-22T07:44:40;12.02;;;2.50;;
53064;SDS011;38948;48.376;-4.312;2022-12-22T07:47:06;12.07;;;2.63;;
53064;SDS011;38948;48.376;-4.312;2022-12-22T07:49:32;15.95;;;2.20;;
53064;SDS011;38948;48.376;-4.312;2022-12-22T07:52:16;10.65;;;2.40;;
53064;SDS011;38948;48.376;-4.312;2022-12-22T07:54:42;13.10;;;2.38;;
53064;SDS011;38948;48.376;-4.312;2022-12-22T07:57:08;10.50;;;2.88;;
53064;SDS011;38948;48.376;-4.312;2022-12-22T07:59:33;9.30;;;2.28;;
53064;SDS011;38948;48.376;-4.312;2022-12-22T08:02:00;15.30;;;2.80;;
53064;SDS011;38948;48.376;-4.312;2022-12-22T08:04:26;11.70;;;1.95;;
53064;SDS011;38948;48.376;-4.312;2022-12-22T08:06:52;11.82;;;2.58;;
53064;SDS011;38948;48.376;-4.312;2022-12-22T08:09:18;6.40;;;2.08;;
53064;SDS011;38948;48.376;-4.312;2022-12-22T08:11:45;13.35;;;2.22;;
53064;SDS011;38948;48.376;-4.312;2022-12-22T08:14:13;12.65;;;2.45;;
53064;SDS011;38948;48.376;-4.312;2022-12-22T08:16:38;11.75;;;3.42;;
53064;SDS011;38948;48.376;-4.312;2022-12-22T08:19:04;11.48;;;1.90;;
53064;SDS011;38948;48.376;-4.312;2022-12-22T08:21:30;11.63;;;2.35;;
53064;SDS011;38948;48.376;-4.312;2022-12-22T08:23:56;13.20;;;2.80;;
53064;SDS011;38948;48.376;-4.312;2022-12-22T08:26:35;11.32;;;2.30;;
53064;SDS011;38948;48.376;-4.312;2022-12-22T08:29:09;15.90;;;2.20;;
53064;SDS011;38948;48.376;-4.312;2022-12-22T08:31:45;12.55;;;2.40;;
53064;SDS011;38948;48.376;-4.312;2022-12-22T08:34:12;10.80;;;2.22;;
53064;SDS011;38948;48.376;-4.312;2022-12-22T08:36:45;8.45;;;2.33;;
53064;SDS011;38948;48.376;-4.312;2022-12-22T08:39:15;13.60;;;2.47;;
53064;SDS011;38948;48.376;-4.312;2022-12-22T08:41:42;9.27;;;2.10;;
53064;SDS011;38948;48.376;-4.312;2022-12-22T08:44:14;7.72;;;1.90;;
53064;SDS011;38948;48.376;-4.312;2022-12-22T08:46:42;8.60;;;2.10;;
53064;SDS011;38948;48.376;-4.312;2022-12-22T08:49:09;11.00;;;1.98;;
53064;SDS011;38948;48.376;-4.312;2022-12-22T08:51:36;13.48;;;2.67;;
53064;SDS011;38948;48.376;-4.312;2022-12-22T08:54:02;8.07;;;2.10;;
53064;SDS011;38948;48.376;-4.312;2022-12-22T08:56:28;9.70;;;2.13;;
53064;SDS011;38948;48.376;-4.312;2022-12-22T08:58:55;8.48;;;2.13;;
53064;SDS011;38948;48.376;-4.312;2022-12-22T09:01:21;16.98;;;3.28;;
53064;SDS011;38948;48.376;-4.312;2022-12-22T09:03:51;12.23;;;2.20;;
53064;SDS011;38948;48.376;-4.312;2022-12-22T09:06:18;10.52;;;2.25;;
53064;SDS011;38948;48.376;-4.312;2022-12-22T09:08:46;11.25;;;2.80;;
53064;SDS011;38948;48.376;-4.312;2022-12-22T09:11:12;13.15;;;3.22;;
53064;SDS011;38948;48.376;-4.312;2022-12-22T09:13:38;15.57;;;3.22;;
53064;SDS011;38948;48.376;-4.312;2022-12-22T09:16:07;10.35;;;3.17;;
53064;SDS011;38948;48.376;-4.312;2022-12-22T09:18:34;11.55;;;2.28;;
53064;SDS011;38948;48.376;-4.312;2022-12-22T09:21:00;10.30;;;2.60;;
53064;SDS011;38948;48.376;-4.312;2022-12-22T09:23:26;17.17;;;3.67;;
53064;SDS011;38948;48.376;-4.312;2022-12-22T09:25:55;12.52;;;2.72;;
53064;SDS011;38948;48.376;-4.312;2022-12-22T09:28:21;14.38;;;3.22;;
53064;SDS011;38948;48.376;-4.312;2022-12-22T09:30:50;12.80;;;2.42;;
53064;SDS011;38948;48.376;-4.312;2022-12-22T09:33:17;12.93;;;2.40;;
53064;SDS011;38948;48.376;-4.312;2022-12-22T09:35:43;12.07;;;2.90;;
53064;SDS011;38948;48.376;-4.312;2022-12-22T09:38:09;16.92;;;3.03;;
53064;SDS011;38948;48.376;-4.312;2022-12-22T09:40:34;11.20;;;3.58;;
53064;SDS011;38948;48.376;-4.312;2022-12-22T09:43:01;19.15;;;4.03;;
53064;SDS011;38948;48.376;-4.312;2022-12-22T09:45:28;16.05;;;3.88;;
53064;SDS011;38948;48.376;-4.312;2022-12-22T09:47:57;11.55;;;3.20;;
53064;SDS011;38948;48.376;-4.312;2022-12-22T09:50:25;15.45;;;2.88;;
53064;SDS011;38948;48.376;-4.312;2022-12-22T09:52:52;16.35;;;3.38;;
53064;SDS011;38948;48.376;-4.312;2022-12-22T09:55:40;19.35;;;4.45;;
53064;SDS011;38948;48.376;-4.312;2022-12-22T09:58:12;21.67;;;4.35;;
53064;SDS011;38948;48.376;-4.312;2022-12-22T10:08:35;11.40;;;3.85;;
53064;SDS011;38948;48.376;-4.312;2022-12-22T10:11:02;7.68;;;2.78;;
53064;SDS011;38948;48.376;-4.312;2022-12-22T10:13:29;11.98;;;3.15;;
53064;SDS011;38948;48.376;-4.312;2022-12-22T10:15:55;9.48;;;2.38;;
53064;SDS011;38948;48.376;-4.312;2022-12-22T10:18:22;10.70;;;3.15;;
53064;SDS011;38948;48.376;-4.312;2022-12-22T10:23:36;10.43;;;2.47;;
53064;SDS011;38948;48.376;-4.312;2022-12-22T10:26:09;11.20;;;2.67;;
53064;SDS011;38948;48.376;-4.312;2022-12-22T10:28:42;10.32;;;3.28;;
53064;SDS011;38948;48.376;-4.312;2022-12-22T10:33:43;8.40;;;2.22;;
53064;SDS011;38948;48.376;-4.312;2022-12-22T10:36:11;7.30;;;2.50;;
53064;SDS011;38948;48.376;-4.312;2022-12-22T10:38:39;8.02;;;1.95;;
53064;SDS011;38948;48.376;-4.312;2022-12-22T10:41:17;9.35;;;2.08;;
53064;SDS011;38948;48.376;-4.312;2022-12-22T10:43:52;8.70;;;2.38;;
53064;SDS011;38948;48.376;-4.312;2022-12-22T10:51:35;5.63;;;1.40;;
53064;SDS011;38948;48.376;-4.312;2022-12-22T10:54:01;6.85;;;1.70;;
53064;SDS011;38948;48.376;-4.312;2022-12-22T10:56:27;11.98;;;2.20;;
53064;SDS011;38948;48.376;-4.312;2022-12-22T10:58:55;9.43;;;1.73;;
53064;SDS011;38948;48.376;-4.312;2022-12-22T11:01:22;7.15;;;1.83;;
53064;SDS011;38948;48.376;-4.312;2022-12-22T11:04:14;4.30;;;1.17;;
53064;SDS011;38948;48.376;-4.312;2022-12-22T11:06:45;4.85;;;1.20;;
53064;SDS011;38948;48.376;-4.312;2022-12-22T11:09:11;8.98;;;2.30;;
53064;SDS011;38948;48.376;-4.312;2022-12-22T11:17:16;6.00;;;1.52;;
53064;SDS011;38948;48.376;-4.312;2022-12-22T11:19:55;5.38;;;1.27;;
53064;SDS011;38948;48.376;-4.312;2022-12-22T11:22:46;5.90;;;1.70;;
53064;SDS011;38948;48.376;-4.312;2022-12-22T11:28:15;6.97;;;1.50;;
53064;SDS011;38948;48.376;-4.312;2022-12-22T11:38:54;5.45;;;1.65;;
53064;SDS011;38948;48.376;-4.312;2022-12-22T11:46:50;4.10;;;1.20;;
53064;SDS011;38948;48.376;-4.312;2022-12-22T11:52:23;34.72;;;16.80;;
53064;SDS011;38948;48.376;-4.312;2022-12-22T12:01:30;42.60;;;18.80;;
53064;SDS011;38948;48.376;-4.312;2022-12-22T12:12:03;26.98;;;12.63;;
53064;SDS011;38948;48.376;-4.312;2022-12-22T12:14:33;30.48;;;13.15;;
53064;SDS011;38948;48.376;-4.312;2022-12-22T12:17:31;28.30;;;11.52;;
53064;SDS011;38948;48.376;-4.312;2022-12-22T12:25:39;19.60;;;9.15;;
53064;SDS011;38948;48.376;-4.312;2022-12-22T12:28:14;20.35;;;9.45;;
53064;SDS011;38948;48.376;-4.312;2022-12-22T12:30:55;25.73;;;9.50;;
53064;SDS011;38948;48.376;-4.312;2022-12-22T12:33:30;24.63;;;8.77;;
53064;SDS011;38948;48.376;-4.312;2022-12-22T12:36:23;21.58;;;7.82;;
53064;SDS011;38948;48.376;-4.312;2022-12-22T12:39:10;19.05;;;8.88;;
53064;SDS011;38948;48.376;-4.312;2022-12-22T12:44:39;15.30;;;6.85;;
53064;SDS011;38948;48.376;-4.312;2022-12-22T12:50:02;20.15;;;6.95;;
53064;SDS011;38948;48.376;-4.312;2022-12-22T12:57:55;13.48;;;5.18;;
53064;SDS011;38948;48.376;-4.312;2022-12-22T13:03:04;15.88;;;5.63;;
53064;SDS011;38948;48.376;-4.312;2022-12-22T13:08:20;13.80;;;5.55;;
53064;SDS011;38948;48.376;-4.312;2022-12-22T13:23:32;12.40;;;3.65;;
53064;SDS011;38948;48.376;-4.312;2022-12-22T13:28:41;9.18;;;3.60;;
53064;SDS011;38948;48.376;-4.312;2022-12-22T13:31:13;10.93;;;3.80;;
53064;SDS011;38948;48.376;-4.312;2022-12-22T13:33:45;11.43;;;3.70;;
53064;SDS011;38948;48.376;-4.312;2022-12-22T13:36:32;16.52;;;4.07;;
53064;SDS011;38948;48.376;-4.312;2022-12-22T13:39:01;16.58;;;3.50;;
53064;SDS011;38948;48.376;-4.312;2022-12-22T13:41:28;13.05;;;3.50;;
53064;SDS011;38948;48.376;-4.312;2022-12-22T13:43:57;16.10;;;3.10;;
53064;SDS011;38948;48.376;-4.312;2022-12-22T13:46:31;14.55;;;2.85;;
53064;SDS011;38948;48.376;-4.312;2022-12-22T13:48:59;10.57;;;3.30;;
53064;SDS011;38948;48.376;-4.312;2022-12-22T13:51:34;13.40;;;3.20;;
53064;SDS011;38948;48.376;-4.312;2022-12-22T14:04:32;11.07;;;3.05;;
53064;SDS011;38948;48.376;-4.312;2022-12-22T14:07:16;8.18;;;2.47;;
53064;SDS011;38948;48.376;-4.312;2022-12-22T14:09:50;9.23;;;2.70;;
53064;SDS011;38948;48.376;-4.312;2022-12-22T14:12:24;8.57;;;2.45;;
53064;SDS011;38948;48.376;-4.312;2022-12-22T14:14:54;10.07;;;2.88;;
53064;SDS011;38948;48.376;-4.312;2022-12-22T14:17:25;8.18;;;2.13;;
53064;SDS011;38948;48.376;-4.312;2022-12-22T14:19:58;6.10;;;2.10;;
53064;SDS011;38948;48.376;-4.312;2022-12-22T14:22:33;10.55;;;2.70;;
53064;SDS011;38948;48.376;-4.312;2022-12-22T14:25:36;7.47;;;2.38;;
53064;SDS011;38948;48.376;-4.312;2022-12-22T14:27:56;7.35;;;1.90;;
53064;SDS011;38948;48.376;-4.312;2022-12-22T14:30:25;6.25;;;2.30;;
53064;SDS011;38948;48.376;-4.312;2022-12-22T14:32:55;5.93;;;1.73;;
53064;SDS011;38948;48.376;-4.312;2022-12-22T14:35:23;11.30;;;2.38;;
53064;SDS011;38948;48.376;-4.312;2022-12-22T14:37:52;5.90;;;1.70;;
53064;SDS011;38948;48.376;-4.312;2022-12-22T14:40:31;11.27;;;2.47;;
53064;SDS011;38948;48.376;-4.312;2022-12-22T14:43:00;12.38;;;2.28;;
53064;SDS011;38948;48.376;-4.312;2022-12-22T14:45:29;7.38;;;2.83;;
53064;SDS011;38948;48.376;-4.312;2022-12-22T14:47:55;7.45;;;2.33;;
53064;SDS011;38948;48.376;-4.312;2022-12-22T14:50:22;9.25;;;1.90;;
53064;SDS011;38948;48.376;-4.312;2022-12-22T14:52:55;6.53;;;1.95;;
53064;SDS011;38948;48.376;-4.312;2022-12-22T14:55:33;8.77;;;2.08;;
53064;SDS011;38948;48.376;-4.312;2022-12-22T14:58:38;6.57;;;1.50;;
53064;SDS011;38948;48.376;-4.312;2022-12-22T15:01:11;9.40;;;2.22;;
53064;SDS011;38948;48.376;-4.312;2022-12-22T15:03:41;5.60;;;1.73;;
53064;SDS011;38948;48.376;-4.312;2022-12-22T15:06:29;7.03;;;1.88;;
53064;SDS011;38948;48.376;-4.312;2022-12-22T15:11:47;8.30;;;2.25;;
53064;SDS011;38948;48.376;-4.312;2022-12-22T15:14:25;7.72;;;1.73;;
53064;SDS011;38948;48.376;-4.312;2022-12-22T15:16:55;7.45;;;2.33;;
53064;SDS011;38948;48.376;-4.312;2022-12-22T15:19:25;5.43;;;1.70;;
53064;SDS011;38948;48.376;-4.312;2022-12-22T15:22:10;7.50;;;1.73;;
53064;SDS011;38948;48.376;-4.312;2022-12-22T15:24:38;5.60;;;1.70;;
53064;SDS011;38948;48.376;-4.312;2022-12-22T15:27:22;7.88;;;1.55;;
53064;SDS011;38948;48.376;-4.312;2022-12-22T15:29:48;5.32;;;1.38;;
53064;SDS011;38948;48.376;-4.312;2022-12-22T15:32:19;4.40;;;1.52;;
53064;SDS011;38948;48.376;-4.312;2022-12-22T15:34:45;5.07;;;1.60;;
53064;SDS011;38948;48.376;-4.312;2022-12-22T15:37:17;3.63;;;1.35;;
53064;SDS011;38948;48.376;-4.312;2022-12-22T15:39:43;8.27;;;1.88;;
53064;SDS011;38948;48.376;-4.312;2022-12-22T15:42:12;7.18;;;2.15;;
53064;SDS011;38948;48.376;-4.312;2022-12-22T15:44:38;6.22;;;1.67;;
53064;SDS011;38948;48.376;-4.312;2022-12-22T15:47:04;7.68;;;1.30;;
53064;SDS011;38948;48.376;-4.312;2022-12-22T15:49:30;5.63;;;1.58;;
53064;SDS011;38948;48.376;-4.312;2022-12-22T15:51:57;6.93;;;1.58;;
53064;SDS011;38948;48.376;-4.312;2022-12-22T15:54:25;5.68;;;2.50;;
53064;SDS011;38948;48.376;-4.312;2022-12-22T15:56:53;5.75;;;1.90;;
53064;SDS011;38948;48.376;-4.312;2022-12-22T15:59:40;3.17;;;1.10;;
53064;SDS011;38948;48.376;-4.312;2022-12-22T16:02:10;6.95;;;1.85;;
53064;SDS011;38948;48.376;-4.312;2022-12-22T16:04:36;6.47;;;1.50;;
53064;SDS011;38948;48.376;-4.312;2022-12-22T16:07:03;5.20;;;1.67;;
53064;SDS011;38948;48.376;-4.312;2022-12-22T16:09:30;4.15;;;1.20;;
53064;SDS011;38948;48.376;-4.312;2022-12-22T16:12:13;4.93;;;1.30;;
53064;SDS011;38948;48.376;-4.312;2022-12-22T16:14:42;4.88;;;1.65;;
53064;SDS011;38948;48.376;-4.312;2022-12-22T16:17:23;5.60;;;2.17;;
53064;SDS011;38948;48.376;-4.312;2022-12-22T16:19:51;8.13;;;1.70;;
53064;SDS011;38948;48.376;-4.312;2022-12-22T16:22:18;4.28;;;1.50;;
53064;SDS011;38948;48.376;-4.312;2022-12-22T16:24:46;6.15;;;1.77;;
53064;SDS011;38948;48.376;-4.312;2022-12-22T16:27:14;5.90;;;1.80;;
53064;SDS011;38948;48.376;-4.312;2022-12-22T16:29:46;6.65;;;2.00;;
53064;SDS011;38948;48.376;-4.312;2022-12-22T16:34:46;5.93;;;1.80;;
53064;SDS011;38948;48.376;-4.312;2022-12-22T16:37:13;5.35;;;1.95;;
53064;SDS011;38948;48.376;-4.312;2022-12-22T16:39:38;6.20;;;2.10;;
53064;SDS011;38948;48.376;-4.312;2022-12-22T16:42:05;4.82;;;1.90;;
53064;SDS011;38948;48.376;-4.312;2022-12-22T16:44:36;4.18;;;1.67;;
53064;SDS011;38948;48.376;-4.312;2022-12-22T16:47:02;6.95;;;2.45;;
53064;SDS011;38948;48.376;-4.312;2022-12-22T16:49:29;5.95;;;1.65;;
53064;SDS011;38948;48.376;-4.312;2022-12-22T16:51:55;5.57;;;2.20;;
53064;SDS011;38948;48.376;-4.312;2022-12-22T16:54:21;8.05;;;2.13;;
53064;SDS011;38948;48.376;-4.312;2022-12-22T16:56:46;8.15;;;1.95;;
53064;SDS011;38948;48.376;-4.312;2022-12-22T16:59:15;5.90;;;1.92;;
53064;SDS011;38948;48.376;-4.312;2022-12-22T17:01:47;4.95;;;2.10;;
53064;SDS011;38948;48.376;-4.312;2022-12-22T17:04:27;6.75;;;2.00;;
53064;SDS011;38948;48.376;-4.312;2022-12-22T17:06:55;3.92;;;1.52;;
53064;SDS011;38948;48.376;-4.312;2022-12-22T17:09:24;6.35;;;1.77;;
53064;SDS011;38948;48.376;-4.312;2022-12-22T17:11:53;8.95;;;2.05;;
53064;SDS011;38948;48.376;-4.312;2022-12-22T17:14:26;6.03;;;2.15;;
53064;SDS011;38948;48.376;-4.312;2022-12-22T17:17:01;8.73;;;3.05;;
53064;SDS011;38948;48.376;-4.312;2022-12-22T17:19:27;6.80;;;3.33;;
53064;SDS011;38948;48.376;-4.312;2022-12-22T17:21:56;7.75;;;3.53;;